sensor_id;sensor_type;location;lat;lon;timestamp;P1;durP1;ratioP1;P2;durP2;ratioP2
66874;SDS011;53784;52.630;4.896;2023-01-16T00:00:40;9.63;;;5.00;;
66874;SDS011;53784;52.630;4.896;2023-01-16T00:03:05;9.38;;;4.88;;
66874;SDS011;53784;52.630;4.896;2023-01-16T00:05:31;9.13;;;5.05;;
66874;SDS011;53784;52.630;4.896;2023-01-16T00:07:56;8.02;;;4.55;;
66874;SDS011;53784;52.630;4.896;2023-01-16T00:10:22;9.70;;;5.43;;
66874;SDS011;53784;52.630;4.896;2023-01-16T00:12:47;9.38;;;5.55;;
66874;SDS011;53784;52.630;4.896;2023-01-16T00:15:13;10.30;;;5.03;;
66874;SDS011;53784;52.630;4.896;2023-01-16T00:17:38;8.80;;;5.13;;
66874;SDS011;53784;52.630;4.896;2023-01-16T00:20:04;10.32;;;5.57;;
66874;SDS011;53784;52.630;4.896;2023-01-16T00:22:29;9.75;;;5.53;;
66874;SDS011;53784;52.630;4.896;2023-01-16T00:24:55;9.07;;;5.18;;
66874;SDS011;53784;52.630;4.896;2023-01-16T00:27:20;8.27;;;5.15;;
66874;SDS011;53784;52.630;4.896;2023-01-16T00:29:45;9.13;;;4.82;;
66874;SDS011;53784;52.630;4.896;2023-01-16T00:32:10;9.98;;;5.55;;
66874;SDS011;53784;52.630;4.896;2023-01-16T00:34:36;10.82;;;5.63;;
66874;SDS011;53784;52.630;4.896;2023-01-16T00:37:01;9.55;;;4.88;;
66874;SDS011;53784;52.630;4.896;2023-01-16T00:39:27;9.13;;;5.47;;
66874;SDS011;53784;52.630;4.896;2023-01-16T00:41:52;9.27;;;5.15;;
66874;SDS011;53784;52.630;4.896;2023-01-16T00:44:17;10.98;;;6.03;;
66874;SDS011;53784;52.630;4.896;2023-01-16T00:46:44;10.32;;;5.78;;
66874;SDS011;53784;52.630;4.896;2023-01-16T00:49:09;12.98;;;5.85;;
66874;SDS011;53784;52.630;4.896;2023-01-16T00:51:35;10.82;;;6.13;;
66874;SDS011;53784;52.630;4.896;2023-01-16T00:54:00;12.43;;;5.95;;
66874;SDS011;53784;52.630;4.896;2023-01-16T00:56:25;10.90;;;6.05;;
66874;SDS011;53784;52.630;4.896;2023-01-16T00:58:51;10.07;;;6.00;;
66874;SDS011;53784;52.630;4.896;2023-01-16T01:01:16;12.10;;;6.70;;
66874;SDS011;53784;52.630;4.896;2023-01-16T01:03:41;12.52;;;6.72;;
66874;SDS011;53784;52.630;4.896;2023-01-16T01:06:07;10.15;;;6.15;;
66874;SDS011;53784;52.630;4.896;2023-01-16T01:08:33;11.52;;;6.53;;
66874;SDS011;53784;52.630;4.896;2023-01-16T01:11:05;12.73;;;6.95;;
66874;SDS011;53784;52.630;4.896;2023-01-16T01:13:31;12.35;;;6.50;;
66874;SDS011;53784;52.630;4.896;2023-01-16T01:15:56;14.32;;;6.40;;
66874;SDS011;53784;52.630;4.896;2023-01-16T01:18:21;11.93;;;6.35;;
66874;SDS011;53784;52.630;4.896;2023-01-16T01:20:47;11.75;;;6.13;;
66874;SDS011;53784;52.630;4.896;2023-01-16T01:23:12;11.70;;;7.05;;
66874;SDS011;53784;52.630;4.896;2023-01-16T01:25:37;13.45;;;7.22;;
66874;SDS011;53784;52.630;4.896;2023-01-16T01:28:03;13.02;;;6.82;;
66874;SDS011;53784;52.630;4.896;2023-01-16T01:30:29;13.05;;;6.88;;
66874;SDS011;53784;52.630;4.896;2023-01-16T01:32:54;13.82;;;7.15;;
66874;SDS011;53784;52.630;4.896;2023-01-16T01:35:19;13.70;;;7.57;;
66874;SDS011;53784;52.630;4.896;2023-01-16T01:37:45;12.35;;;7.10;;
66874;SDS011;53784;52.630;4.896;2023-01-16T01:40:10;15.60;;;7.53;;
66874;SDS011;53784;52.630;4.896;2023-01-16T01:42:39;16.67;;;7.85;;
66874;SDS011;53784;52.630;4.896;2023-01-16T01:45:41;15.63;;;7.15;;
66874;SDS011;53784;52.630;4.896;2023-01-16T01:53:04;14.40;;;7.35;;
66874;SDS011;53784;52.630;4.896;2023-01-16T01:55:39;14.30;;;8.15;;
66874;SDS011;53784;52.630;4.896;2023-01-16T01:58:07;13.60;;;7.60;;
66874;SDS011;53784;52.630;4.896;2023-01-16T02:00:33;16.55;;;7.97;;
66874;SDS011;53784;52.630;4.896;2023-01-16T02:03:09;17.00;;;7.93;;
66874;SDS011;53784;52.630;4.896;2023-01-16T02:05:39;19.02;;;8.73;;
66874;SDS011;53784;52.630;4.896;2023-01-16T02:08:10;17.08;;;8.55;;
66874;SDS011;53784;52.630;4.896;2023-01-16T02:10:39;18.83;;;8.48;;
66874;SDS011;53784;52.630;4.896;2023-01-16T02:13:07;15.70;;;8.43;;
66874;SDS011;53784;52.630;4.896;2023-01-16T02:15:33;17.45;;;8.85;;
66874;SDS011;53784;52.630;4.896;2023-01-16T02:17:59;16.88;;;8.98;;
66874;SDS011;53784;52.630;4.896;2023-01-16T02:40:32;16.98;;;9.50;;
66874;SDS011;53784;52.630;4.896;2023-01-16T02:43:05;16.38;;;7.80;;
66874;SDS011;53784;52.630;4.896;2023-01-16T02:45:41;16.20;;;8.23;;
66874;SDS011;53784;52.630;4.896;2023-01-16T02:53:21;16.75;;;8.60;;
66874;SDS011;53784;52.630;4.896;2023-01-16T02:55:53;15.95;;;8.60;;
66874;SDS011;53784;52.630;4.896;2023-01-16T02:58:22;17.85;;;8.35;;
66874;SDS011;53784;52.630;4.896;2023-01-16T03:00:48;19.08;;;8.02;;
66874;SDS011;53784;52.630;4.896;2023-01-16T03:03:19;13.35;;;6.70;;
66874;SDS011;53784;52.630;4.896;2023-01-16T03:05:58;12.85;;;6.38;;
66874;SDS011;53784;52.630;4.896;2023-01-16T03:08:40;15.77;;;6.45;;
66874;SDS011;53784;52.630;4.896;2023-01-16T03:11:37;16.27;;;7.50;;
66874;SDS011;53784;52.630;4.896;2023-01-16T03:14:48;14.65;;;6.25;;
66874;SDS011;53784;52.630;4.896;2023-01-16T03:19:53;16.58;;;8.07;;
66874;SDS011;53784;52.630;4.896;2023-01-16T03:25:42;16.27;;;7.40;;
66874;SDS011;53784;52.630;4.896;2023-01-16T03:28:12;14.15;;;6.90;;
66874;SDS011;53784;52.630;4.896;2023-01-16T03:33:46;16.48;;;8.38;;
66874;SDS011;53784;52.630;4.896;2023-01-16T03:36:24;19.90;;;8.43;;
66874;SDS011;53784;52.630;4.896;2023-01-16T03:38:54;17.52;;;8.27;;
66874;SDS011;53784;52.630;4.896;2023-01-16T03:41:21;19.95;;;8.95;;
66874;SDS011;53784;52.630;4.896;2023-01-16T03:43:49;18.33;;;8.60;;
66874;SDS011;53784;52.630;4.896;2023-01-16T03:46:17;16.48;;;8.43;;
66874;SDS011;53784;52.630;4.896;2023-01-16T03:48:55;19.00;;;8.85;;
66874;SDS011;53784;52.630;4.896;2023-01-16T03:51:25;23.45;;;8.82;;
66874;SDS011;53784;52.630;4.896;2023-01-16T03:56:43;18.85;;;8.52;;
66874;SDS011;53784;52.630;4.896;2023-01-16T03:59:13;17.55;;;8.50;;
66874;SDS011;53784;52.630;4.896;2023-01-16T04:01:53;22.40;;;9.63;;
66874;SDS011;53784;52.630;4.896;2023-01-16T04:04:29;17.73;;;8.63;;
66874;SDS011;53784;52.630;4.896;2023-01-16T04:06:59;21.15;;;8.85;;
66874;SDS011;53784;52.630;4.896;2023-01-16T04:09:38;22.38;;;8.85;;
66874;SDS011;53784;52.630;4.896;2023-01-16T04:12:07;23.25;;;9.18;;
66874;SDS011;53784;52.630;4.896;2023-01-16T04:14:34;21.67;;;9.32;;
66874;SDS011;53784;52.630;4.896;2023-01-16T04:17:01;20.50;;;9.52;;
66874;SDS011;53784;52.630;4.896;2023-01-16T04:19:28;18.02;;;8.93;;
66874;SDS011;53784;52.630;4.896;2023-01-16T04:21:55;20.17;;;8.82;;
66874;SDS011;53784;52.630;4.896;2023-01-16T04:24:20;20.95;;;8.65;;
66874;SDS011;53784;52.630;4.896;2023-01-16T04:26:46;17.10;;;8.32;;
66874;SDS011;53784;52.630;4.896;2023-01-16T04:29:11;19.65;;;9.13;;
66874;SDS011;53784;52.630;4.896;2023-01-16T04:31:36;17.63;;;8.43;;
66874;SDS011;53784;52.630;4.896;2023-01-16T04:34:02;16.83;;;8.30;;
66874;SDS011;53784;52.630;4.896;2023-01-16T04:36:27;19.00;;;9.05;;
66874;SDS011;53784;52.630;4.896;2023-01-16T04:38:53;16.05;;;7.47;;
66874;SDS011;53784;52.630;4.896;2023-01-16T04:41:19;18.98;;;8.18;;
66874;SDS011;53784;52.630;4.896;2023-01-16T04:44:03;16.85;;;7.82;;
66874;SDS011;53784;52.630;4.896;2023-01-16T04:46:29;16.25;;;7.65;;
66874;SDS011;53784;52.630;4.896;2023-01-16T04:48:55;14.23;;;6.38;;
66874;SDS011;53784;52.630;4.896;2023-01-16T04:51:20;18.92;;;7.85;;
66874;SDS011;53784;52.630;4.896;2023-01-16T04:53:46;12.38;;;5.60;;
66874;SDS011;53784;52.630;4.896;2023-01-16T04:56:11;13.40;;;6.30;;
66874;SDS011;53784;52.630;4.896;2023-01-16T04:58:36;13.95;;;6.40;;
66874;SDS011;53784;52.630;4.896;2023-01-16T05:01:02;13.00;;;6.20;;
66874;SDS011;53784;52.630;4.896;2023-01-16T05:03:27;12.18;;;6.10;;
66874;SDS011;53784;52.630;4.896;2023-01-16T05:05:52;10.35;;;4.88;;
66874;SDS011;53784;52.630;4.896;2023-01-16T05:08:17;14.40;;;5.70;;
66874;SDS011;53784;52.630;4.896;2023-01-16T05:10:43;9.63;;;4.30;;
66874;SDS011;53784;52.630;4.896;2023-01-16T05:13:09;11.63;;;4.45;;
66874;SDS011;53784;52.630;4.896;2023-01-16T05:15:35;11.82;;;4.72;;
66874;SDS011;53784;52.630;4.896;2023-01-16T05:18:00;11.13;;;4.78;;
66874;SDS011;53784;52.630;4.896;2023-01-16T05:20:26;12.85;;;5.10;;
66874;SDS011;53784;52.630;4.896;2023-01-16T05:22:51;11.75;;;5.10;;
66874;SDS011;53784;52.630;4.896;2023-01-16T05:25:16;12.25;;;4.50;;
66874;SDS011;53784;52.630;4.896;2023-01-16T05:27:42;14.15;;;5.47;;
66874;SDS011;53784;52.630;4.896;2023-01-16T05:30:07;13.02;;;4.70;;
66874;SDS011;53784;52.630;4.896;2023-01-16T05:32:33;13.60;;;4.38;;
66874;SDS011;53784;52.630;4.896;2023-01-16T05:34:58;10.15;;;4.55;;
66874;SDS011;53784;52.630;4.896;2023-01-16T05:37:26;6.95;;;2.88;;
66874;SDS011;53784;52.630;4.896;2023-01-16T05:39:52;10.13;;;3.58;;
66874;SDS011;53784;52.630;4.896;2023-01-16T05:42:21;8.73;;;2.85;;
66874;SDS011;53784;52.630;4.896;2023-01-16T05:44:48;8.65;;;2.90;;
66874;SDS011;53784;52.630;4.896;2023-01-16T05:47:13;8.32;;;3.25;;
66874;SDS011;53784;52.630;4.896;2023-01-16T05:49:39;8.65;;;2.92;;
66874;SDS011;53784;52.630;4.896;2023-01-16T05:52:04;7.40;;;2.45;;
66874;SDS011;53784;52.630;4.896;2023-01-16T05:54:29;7.70;;;2.97;;
66874;SDS011;53784;52.630;4.896;2023-01-16T05:56:55;8.95;;;2.78;;
66874;SDS011;53784;52.630;4.896;2023-01-16T05:59:20;6.78;;;2.58;;
66874;SDS011;53784;52.630;4.896;2023-01-16T06:01:45;6.60;;;2.70;;
66874;SDS011;53784;52.630;4.896;2023-01-16T06:04:11;8.73;;;2.53;;
66874;SDS011;53784;52.630;4.896;2023-01-16T06:06:36;8.50;;;2.50;;
66874;SDS011;53784;52.630;4.896;2023-01-16T06:09:01;7.18;;;2.45;;
66874;SDS011;53784;52.630;4.896;2023-01-16T06:11:27;7.85;;;2.35;;
66874;SDS011;53784;52.630;4.896;2023-01-16T06:13:52;7.88;;;2.20;;
66874;SDS011;53784;52.630;4.896;2023-01-16T06:16:17;7.45;;;2.03;;
66874;SDS011;53784;52.630;4.896;2023-01-16T06:18:43;9.85;;;2.35;;
66874;SDS011;53784;52.630;4.896;2023-01-16T06:21:08;6.18;;;1.85;;
66874;SDS011;53784;52.630;4.896;2023-01-16T06:23:34;5.07;;;1.90;;
66874;SDS011;53784;52.630;4.896;2023-01-16T06:25:59;8.98;;;2.00;;
66874;SDS011;53784;52.630;4.896;2023-01-16T06:28:25;7.88;;;2.03;;
66874;SDS011;53784;52.630;4.896;2023-01-16T06:30:51;4.82;;;1.70;;
66874;SDS011;53784;52.630;4.896;2023-01-16T06:33:17;6.30;;;1.60;;
66874;SDS011;53784;52.630;4.896;2023-01-16T06:35:42;6.60;;;1.80;;
66874;SDS011;53784;52.630;4.896;2023-01-16T06:38:07;6.80;;;1.70;;
66874;SDS011;53784;52.630;4.896;2023-01-16T06:40:33;6.88;;;1.60;;
66874;SDS011;53784;52.630;4.896;2023-01-16T06:42:58;6.00;;;1.77;;
66874;SDS011;53784;52.630;4.896;2023-01-16T06:45:23;9.50;;;1.90;;
66874;SDS011;53784;52.630;4.896;2023-01-16T06:47:52;7.78;;;1.80;;
66874;SDS011;53784;52.630;4.896;2023-01-16T06:50:18;6.53;;;1.98;;
66874;SDS011;53784;52.630;4.896;2023-01-16T06:52:44;6.85;;;1.83;;
66874;SDS011;53784;52.630;4.896;2023-01-16T06:55:09;5.32;;;1.92;;
66874;SDS011;53784;52.630;4.896;2023-01-16T06:57:37;6.97;;;1.70;;
66874;SDS011;53784;52.630;4.896;2023-01-16T07:00:03;9.27;;;1.80;;
66874;SDS011;53784;52.630;4.896;2023-01-16T07:02:29;8.55;;;1.88;;
66874;SDS011;53784;52.630;4.896;2023-01-16T07:04:55;6.13;;;1.70;;
66874;SDS011;53784;52.630;4.896;2023-01-16T07:07:20;7.18;;;1.98;;
66874;SDS011;53784;52.630;4.896;2023-01-16T07:09:45;6.18;;;1.70;;
66874;SDS011;53784;52.630;4.896;2023-01-16T07:12:11;7.72;;;1.73;;
66874;SDS011;53784;52.630;4.896;2023-01-16T07:14:36;6.50;;;1.50;;
66874;SDS011;53784;52.630;4.896;2023-01-16T07:17:20;6.75;;;1.77;;
66874;SDS011;53784;52.630;4.896;2023-01-16T07:20:04;7.40;;;1.85;;
66874;SDS011;53784;52.630;4.896;2023-01-16T07:22:48;7.05;;;1.80;;
66874;SDS011;53784;52.630;4.896;2023-01-16T07:25:15;7.93;;;1.80;;
66874;SDS011;53784;52.630;4.896;2023-01-16T07:27:42;9.27;;;1.98;;
66874;SDS011;53784;52.630;4.896;2023-01-16T07:30:08;8.45;;;1.90;;
66874;SDS011;53784;52.630;4.896;2023-01-16T07:32:34;7.70;;;1.88;;
66874;SDS011;53784;52.630;4.896;2023-01-16T07:35:00;7.47;;;2.00;;
66874;SDS011;53784;52.630;4.896;2023-01-16T07:37:25;8.88;;;1.95;;
66874;SDS011;53784;52.630;4.896;2023-01-16T07:39:50;6.10;;;1.65;;
66874;SDS011;53784;52.630;4.896;2023-01-16T07:42:16;6.05;;;2.10;;
66874;SDS011;53784;52.630;4.896;2023-01-16T07:44:41;6.65;;;1.75;;
66874;SDS011;53784;52.630;4.896;2023-01-16T07:47:06;12.07;;;2.10;;
66874;SDS011;53784;52.630;4.896;2023-01-16T07:49:32;5.78;;;1.92;;
66874;SDS011;53784;52.630;4.896;2023-01-16T07:51:57;8.40;;;1.90;;
66874;SDS011;53784;52.630;4.896;2023-01-16T07:54:23;10.82;;;2.00;;
66874;SDS011;53784;52.630;4.896;2023-01-16T07:56:48;9.63;;;1.92;;
66874;SDS011;53784;52.630;4.896;2023-01-16T07:59:13;5.80;;;1.70;;
66874;SDS011;53784;52.630;4.896;2023-01-16T08:01:39;6.53;;;1.50;;
66874;SDS011;53784;52.630;4.896;2023-01-16T08:04:04;6.28;;;1.33;;
66874;SDS011;53784;52.630;4.896;2023-01-16T08:06:30;6.57;;;1.60;;
66874;SDS011;53784;52.630;4.896;2023-01-16T08:08:55;5.85;;;1.60;;
66874;SDS011;53784;52.630;4.896;2023-01-16T08:11:21;9.20;;;1.70;;
66874;SDS011;53784;52.630;4.896;2023-01-16T08:14:01;5.28;;;1.40;;
66874;SDS011;53784;52.630;4.896;2023-01-16T08:16:27;7.43;;;1.63;;
66874;SDS011;53784;52.630;4.896;2023-01-16T08:18:53;3.72;;;1.20;;
66874;SDS011;53784;52.630;4.896;2023-01-16T08:21:18;9.75;;;1.55;;
66874;SDS011;53784;52.630;4.896;2023-01-16T08:23:44;5.97;;;1.60;;
66874;SDS011;53784;52.630;4.896;2023-01-16T08:26:10;6.32;;;1.63;;
66874;SDS011;53784;52.630;4.896;2023-01-16T08:28:36;6.32;;;1.70;;
66874;SDS011;53784;52.630;4.896;2023-01-16T08:31:11;6.97;;;1.77;;
66874;SDS011;53784;52.630;4.896;2023-01-16T08:33:39;7.38;;;1.70;;
66874;SDS011;53784;52.630;4.896;2023-01-16T08:36:05;7.50;;;1.60;;
66874;SDS011;53784;52.630;4.896;2023-01-16T08:38:32;4.13;;;1.52;;
66874;SDS011;53784;52.630;4.896;2023-01-16T08:40:57;10.20;;;1.70;;
66874;SDS011;53784;52.630;4.896;2023-01-16T08:43:23;4.68;;;1.65;;
66874;SDS011;53784;52.630;4.896;2023-01-16T08:46:18;4.20;;;1.50;;
66874;SDS011;53784;52.630;4.896;2023-01-16T08:49:03;4.30;;;1.60;;
66874;SDS011;53784;52.630;4.896;2023-01-16T08:51:47;3.20;;;1.30;;
66874;SDS011;53784;52.630;4.896;2023-01-16T08:54:13;5.97;;;1.88;;
66874;SDS011;53784;52.630;4.896;2023-01-16T08:56:38;5.85;;;1.60;;
66874;SDS011;53784;52.630;4.896;2023-01-16T08:59:07;5.90;;;1.70;;
66874;SDS011;53784;52.630;4.896;2023-01-16T09:01:33;4.22;;;1.63;;
66874;SDS011;53784;52.630;4.896;2023-01-16T09:03:58;5.63;;;1.80;;
66874;SDS011;53784;52.630;4.896;2023-01-16T09:06:24;4.60;;;1.50;;
66874;SDS011;53784;52.630;4.896;2023-01-16T09:08:49;3.47;;;1.42;;
66874;SDS011;53784;52.630;4.896;2023-01-16T09:11:15;6.20;;;1.70;;
66874;SDS011;53784;52.630;4.896;2023-01-16T09:13:59;4.75;;;1.80;;
66874;SDS011;53784;52.630;4.896;2023-01-16T09:16:26;3.17;;;1.35;;
66874;SDS011;53784;52.630;4.896;2023-01-16T09:18:52;4.07;;;1.70;;
66874;SDS011;53784;52.630;4.896;2023-01-16T09:21:18;3.90;;;1.45;;
66874;SDS011;53784;52.630;4.896;2023-01-16T09:23:44;8.32;;;1.60;;
66874;SDS011;53784;52.630;4.896;2023-01-16T09:26:10;5.05;;;1.70;;
66874;SDS011;53784;52.630;4.896;2023-01-16T09:28:35;5.15;;;1.80;;
66874;SDS011;53784;52.630;4.896;2023-01-16T09:31:01;4.72;;;1.70;;
66874;SDS011;53784;52.630;4.896;2023-01-16T09:33:26;6.88;;;1.60;;
66874;SDS011;53784;52.630;4.896;2023-01-16T09:35:52;3.72;;;1.55;;
66874;SDS011;53784;52.630;4.896;2023-01-16T09:38:17;6.25;;;1.95;;
66874;SDS011;53784;52.630;4.896;2023-01-16T09:40:46;6.65;;;1.90;;
66874;SDS011;53784;52.630;4.896;2023-01-16T09:46:09;5.57;;;2.30;;
66874;SDS011;53784;52.630;4.896;2023-01-16T09:48:42;7.65;;;2.60;;
66874;SDS011;53784;52.630;4.896;2023-01-16T09:51:13;5.30;;;2.42;;
66874;SDS011;53784;52.630;4.896;2023-01-16T09:53:43;5.70;;;2.63;;
66874;SDS011;53784;52.630;4.896;2023-01-16T09:56:40;7.47;;;2.92;;
66874;SDS011;53784;52.630;4.896;2023-01-16T09:59:29;4.93;;;2.47;;
66874;SDS011;53784;52.630;4.896;2023-01-16T10:02:04;6.97;;;3.10;;
66874;SDS011;53784;52.630;4.896;2023-01-16T10:04:33;6.50;;;2.97;;
66874;SDS011;53784;52.630;4.896;2023-01-16T10:09:51;6.43;;;3.22;;
66874;SDS011;53784;52.630;4.896;2023-01-16T10:12:21;6.60;;;3.05;;
66874;SDS011;53784;52.630;4.896;2023-01-16T10:20:44;7.82;;;3.42;;
66874;SDS011;53784;52.630;4.896;2023-01-16T10:23:18;8.57;;;3.13;;
66874;SDS011;53784;52.630;4.896;2023-01-16T10:26:06;6.97;;;2.78;;
66874;SDS011;53784;52.630;4.896;2023-01-16T10:28:40;6.53;;;3.30;;
66874;SDS011;53784;52.630;4.896;2023-01-16T10:31:24;5.18;;;2.85;;
66874;SDS011;53784;52.630;4.896;2023-01-16T10:33:54;5.65;;;3.10;;
66874;SDS011;53784;52.630;4.896;2023-01-16T10:36:25;7.50;;;3.20;;
66874;SDS011;53784;52.630;4.896;2023-01-16T10:38:55;6.13;;;3.33;;
66874;SDS011;53784;52.630;4.896;2023-01-16T10:41:35;6.13;;;2.78;;
66874;SDS011;53784;52.630;4.896;2023-01-16T10:47:28;6.28;;;2.75;;
66874;SDS011;53784;52.630;4.896;2023-01-16T10:50:14;7.20;;;2.88;;
66874;SDS011;53784;52.630;4.896;2023-01-16T10:52:41;7.93;;;2.88;;
66874;SDS011;53784;52.630;4.896;2023-01-16T10:55:07;5.25;;;3.10;;
66874;SDS011;53784;52.630;4.896;2023-01-16T10:57:33;6.20;;;3.05;;
66874;SDS011;53784;52.630;4.896;2023-01-16T11:00:06;7.00;;;3.35;;
66874;SDS011;53784;52.630;4.896;2023-01-16T11:02:40;6.32;;;3.03;;
66874;SDS011;53784;52.630;4.896;2023-01-16T11:05:23;6.25;;;3.17;;
66874;SDS011;53784;52.630;4.896;2023-01-16T11:07:54;6.40;;;3.17;;
66874;SDS011;53784;52.630;4.896;2023-01-16T11:10:20;8.02;;;3.22;;
66874;SDS011;53784;52.630;4.896;2023-01-16T11:12:46;8.02;;;3.30;;
66874;SDS011;53784;52.630;4.896;2023-01-16T11:15:30;5.97;;;3.13;;
66874;SDS011;53784;52.630;4.896;2023-01-16T11:18:48;6.47;;;3.25;;
66874;SDS011;53784;52.630;4.896;2023-01-16T11:21:14;5.43;;;2.83;;
66874;SDS011;53784;52.630;4.896;2023-01-16T11:23:42;8.23;;;3.30;;
66874;SDS011;53784;52.630;4.896;2023-01-16T11:26:09;6.93;;;3.20;;
66874;SDS011;53784;52.630;4.896;2023-01-16T11:28:34;4.97;;;2.72;;
66874;SDS011;53784;52.630;4.896;2023-01-16T11:31:01;6.00;;;2.90;;
66874;SDS011;53784;52.630;4.896;2023-01-16T11:33:32;4.32;;;2.00;;
66874;SDS011;53784;52.630;4.896;2023-01-16T11:36:00;4.32;;;2.30;;
66874;SDS011;53784;52.630;4.896;2023-01-16T11:38:28;5.68;;;3.00;;
66874;SDS011;53784;52.630;4.896;2023-01-16T11:40:58;7.07;;;2.78;;
66874;SDS011;53784;52.630;4.896;2023-01-16T11:43:26;5.30;;;2.85;;
66874;SDS011;53784;52.630;4.896;2023-01-16T11:48:52;5.72;;;1.75;;
66874;SDS011;53784;52.630;4.896;2023-01-16T11:51:20;4.13;;;1.52;;
66874;SDS011;53784;52.630;4.896;2023-01-16T11:53:49;3.83;;;1.40;;
66874;SDS011;53784;52.630;4.896;2023-01-16T11:56:35;4.25;;;1.42;;
66874;SDS011;53784;52.630;4.896;2023-01-16T11:59:22;2.80;;;1.10;;
66874;SDS011;53784;52.630;4.896;2023-01-16T12:13:05;5.15;;;1.10;;
66874;SDS011;53784;52.630;4.896;2023-01-16T12:18:31;2.70;;;1.13;;
66874;SDS011;53784;52.630;4.896;2023-01-16T12:21:06;5.82;;;1.25;;
66874;SDS011;53784;52.630;4.896;2023-01-16T12:26:21;3.37;;;1.30;;
66874;SDS011;53784;52.630;4.896;2023-01-16T12:28:56;6.72;;;1.50;;
66874;SDS011;53784;52.630;4.896;2023-01-16T12:43:32;8.05;;;1.90;;
66874;SDS011;53784;52.630;4.896;2023-01-16T12:46:11;4.80;;;1.90;;
66874;SDS011;53784;52.630;4.896;2023-01-16T12:48:46;12.93;;;2.08;;
66874;SDS011;53784;52.630;4.896;2023-01-16T12:56:42;7.72;;;1.98;;
66874;SDS011;53784;52.630;4.896;2023-01-16T13:04:40;6.78;;;1.73;;
66874;SDS011;53784;52.630;4.896;2023-01-16T13:07:11;6.10;;;1.40;;
66874;SDS011;53784;52.630;4.896;2023-01-16T13:12:42;3.47;;;1.67;;
66874;SDS011;53784;52.630;4.896;2023-01-16T13:15:28;4.75;;;1.80;;
66874;SDS011;53784;52.630;4.896;2023-01-16T13:17:58;4.00;;;1.65;;
66874;SDS011;53784;52.630;4.896;2023-01-16T13:20:29;5.38;;;2.00;;
66874;SDS011;53784;52.630;4.896;2023-01-16T13:22:55;5.20;;;2.50;;
66874;SDS011;53784;52.630;4.896;2023-01-16T13:25:34;6.88;;;2.65;;
66874;SDS011;53784;52.630;4.896;2023-01-16T13:28:20;8.57;;;4.00;;
66874;SDS011;53784;52.630;4.896;2023-01-16T13:30:51;7.93;;;2.70;;
66874;SDS011;53784;52.630;4.896;2023-01-16T13:33:18;5.60;;;2.55;;
66874;SDS011;53784;52.630;4.896;2023-01-16T13:38:33;9.90;;;2.85;;
66874;SDS011;53784;52.630;4.896;2023-01-16T13:43:53;6.50;;;2.35;;
66874;SDS011;53784;52.630;4.896;2023-01-16T13:46:39;5.45;;;2.17;;
66874;SDS011;53784;52.630;4.896;2023-01-16T13:49:05;4.80;;;2.35;;
66874;SDS011;53784;52.630;4.896;2023-01-16T13:51:30;5.05;;;2.60;;
66874;SDS011;53784;52.630;4.896;2023-01-16T13:54:00;6.40;;;2.70;;
66874;SDS011;53784;52.630;4.896;2023-01-16T13:56:30;6.45;;;2.67;;
66874;SDS011;53784;52.630;4.896;2023-01-16T14:04:11;7.90;;;2.70;;
66874;SDS011;53784;52.630;4.896;2023-01-16T14:06:51;6.45;;;2.55;;
66874;SDS011;53784;52.630;4.896;2023-01-16T14:12:34;8.38;;;2.85;;
66874;SDS011;53784;52.630;4.896;2023-01-16T14:15:17;5.53;;;3.00;;
66874;SDS011;53784;52.630;4.896;2023-01-16T14:18:13;7.00;;;3.13;;
66874;SDS011;53784;52.630;4.896;2023-01-16T14:23:17;5.10;;;2.83;;
66874;SDS011;53784;52.630;4.896;2023-01-16T14:26:03;6.57;;;3.10;;
66874;SDS011;53784;52.630;4.896;2023-01-16T14:28:29;6.47;;;3.03;;
66874;SDS011;53784;52.630;4.896;2023-01-16T14:30:54;5.65;;;2.95;;
66874;SDS011;53784;52.630;4.896;2023-01-16T14:33:20;6.97;;;3.30;;
66874;SDS011;53784;52.630;4.896;2023-01-16T14:35:50;9.35;;;3.80;;
66874;SDS011;53784;52.630;4.896;2023-01-16T14:38:20;6.00;;;3.15;;
66874;SDS011;53784;52.630;4.896;2023-01-16T14:40:48;6.68;;;3.00;;
66874;SDS011;53784;52.630;4.896;2023-01-16T14:43:36;12.48;;;4.10;;
66874;SDS011;53784;52.630;4.896;2023-01-16T14:46:30;7.70;;;3.50;;
66874;SDS011;53784;52.630;4.896;2023-01-16T14:52:34;7.38;;;3.47;;
66874;SDS011;53784;52.630;4.896;2023-01-16T14:55:24;10.50;;;4.78;;
66874;SDS011;53784;52.630;4.896;2023-01-16T14:57:51;15.38;;;5.30;;
66874;SDS011;53784;52.630;4.896;2023-01-16T15:00:19;11.95;;;4.60;;
66874;SDS011;53784;52.630;4.896;2023-01-16T15:03:02;11.18;;;4.68;;
66874;SDS011;53784;52.630;4.896;2023-01-16T15:05:33;12.23;;;6.47;;
66874;SDS011;53784;52.630;4.896;2023-01-16T15:11:01;8.48;;;4.53;;
66874;SDS011;53784;52.630;4.896;2023-01-16T15:14:02;13.05;;;5.80;;
66874;SDS011;53784;52.630;4.896;2023-01-16T15:16:58;9.77;;;4.72;;
66874;SDS011;53784;52.630;4.896;2023-01-16T15:22:51;12.32;;;5.40;;
66874;SDS011;53784;52.630;4.896;2023-01-16T15:27:51;8.35;;;4.70;;
66874;SDS011;53784;52.630;4.896;2023-01-16T15:30:22;13.40;;;8.25;;
66874;SDS011;53784;52.630;4.896;2023-01-16T15:32:54;7.65;;;4.85;;
66874;SDS011;53784;52.630;4.896;2023-01-16T15:35:42;12.10;;;6.72;;
66874;SDS011;53784;52.630;4.896;2023-01-16T15:38:08;12.90;;;7.15;;
66874;SDS011;53784;52.630;4.896;2023-01-16T15:40:34;13.18;;;7.20;;
66874;SDS011;53784;52.630;4.896;2023-01-16T15:43:00;13.77;;;6.78;;
66874;SDS011;53784;52.630;4.896;2023-01-16T15:45:51;15.32;;;8.95;;
66874;SDS011;53784;52.630;4.896;2023-01-16T15:51:36;16.67;;;8.43;;
66874;SDS011;53784;52.630;4.896;2023-01-16T15:54:01;33.67;;;14.38;;
66874;SDS011;53784;52.630;4.896;2023-01-16T15:56:29;28.83;;;14.35;;
66874;SDS011;53784;52.630;4.896;2023-01-16T15:58:59;15.15;;;7.43;;
66874;SDS011;53784;52.630;4.896;2023-01-16T16:01:28;10.00;;;6.05;;
66874;SDS011;53784;52.630;4.896;2023-01-16T16:03:55;11.95;;;7.30;;
66874;SDS011;53784;52.630;4.896;2023-01-16T16:06:20;10.48;;;6.70;;
66874;SDS011;53784;52.630;4.896;2023-01-16T16:08:47;10.52;;;6.57;;
66874;SDS011;53784;52.630;4.896;2023-01-16T16:11:16;9.70;;;7.00;;
66874;SDS011;53784;52.630;4.896;2023-01-16T16:14:01;8.27;;;6.10;;
66874;SDS011;53784;52.630;4.896;2023-01-16T16:16:27;6.40;;;4.20;;
66874;SDS011;53784;52.630;4.896;2023-01-16T16:19:31;6.82;;;4.72;;
66874;SDS011;53784;52.630;4.896;2023-01-16T16:21:57;6.40;;;3.90;;
66874;SDS011;53784;52.630;4.896;2023-01-16T16:24:44;6.20;;;4.05;;
66874;SDS011;53784;52.630;4.896;2023-01-16T16:27:11;8.85;;;5.88;;
66874;SDS011;53784;52.630;4.896;2023-01-16T16:29:37;6.38;;;4.00;;
66874;SDS011;53784;52.630;4.896;2023-01-16T16:32:04;7.07;;;4.88;;
66874;SDS011;53784;52.630;4.896;2023-01-16T16:34:33;7.80;;;5.43;;
66874;SDS011;53784;52.630;4.896;2023-01-16T16:37:01;9.55;;;6.07;;
66874;SDS011;53784;52.630;4.896;2023-01-16T16:41:59;8.52;;;5.65;;
66874;SDS011;53784;52.630;4.896;2023-01-16T16:44:44;6.53;;;4.38;;
66874;SDS011;53784;52.630;4.896;2023-01-16T16:47:25;7.20;;;4.63;;
66874;SDS011;53784;52.630;4.896;2023-01-16T16:49:52;8.75;;;4.85;;
66874;SDS011;53784;52.630;4.896;2023-01-16T16:54:53;8.18;;;4.43;;
66874;SDS011;53784;52.630;4.896;2023-01-16T16:57:19;6.82;;;4.00;;
66874;SDS011;53784;52.630;4.896;2023-01-16T16:59:45;6.22;;;3.50;;
66874;SDS011;53784;52.630;4.896;2023-01-16T17:02:11;5.70;;;3.80;;
66874;SDS011;53784;52.630;4.896;2023-01-16T17:04:37;5.30;;;3.47;;
66874;SDS011;53784;52.630;4.896;2023-01-16T17:07:03;5.22;;;3.50;;
66874;SDS011;53784;52.630;4.896;2023-01-16T17:09:30;4.78;;;3.17;;
66874;SDS011;53784;52.630;4.896;2023-01-16T17:11:57;5.68;;;3.65;;
66874;SDS011;53784;52.630;4.896;2023-01-16T17:14:25;4.32;;;2.65;;
66874;SDS011;53784;52.630;4.896;2023-01-16T17:16:50;3.85;;;2.55;;
66874;SDS011;53784;52.630;4.896;2023-01-16T17:19:17;4.60;;;2.60;;